createdAt,value
2018-08-25T00:02:19.939Z,6.37
2018-08-25T00:05:24.317Z,6.87
2018-08-25T00:08:28.968Z,7.97
2018-08-25T00:11:33.697Z,6.90
2018-08-25T00:14:38.129Z,6.60
2018-08-25T00:17:42.865Z,6.73
2018-08-25T00:20:47.261Z,6.93
2018-08-25T00:23:51.930Z,6.90
2018-08-25T00:26:56.311Z,7.67
2018-08-25T00:30:00.730Z,7.03
2018-08-25T00:33:05.222Z,7.27
2018-08-25T00:36:09.711Z,8.13
2018-08-25T00:39:14.234Z,7.23
2018-08-25T00:42:18.621Z,6.90
2018-08-25T00:45:23.114Z,7.27
2018-08-25T00:48:27.778Z,6.73
2018-08-25T00:51:32.276Z,7.30
2018-08-25T00:54:36.783Z,6.17
2018-08-25T00:57:41.228Z,7.83
2018-08-25T01:00:45.654Z,7.87
2018-08-25T01:03:50.521Z,6.93
2018-08-25T01:06:55.322Z,6.47
2018-08-25T01:10:00.035Z,6.90
2018-08-25T01:13:04.541Z,7.10
2018-08-25T01:16:08.973Z,7.40
2018-08-25T01:19:13.357Z,8.00
2018-08-25T01:22:20.048Z,9.03
2018-08-25T01:25:24.462Z,11.40
2018-08-25T01:28:28.957Z,12.60
2018-08-25T01:31:33.312Z,9.57
2018-08-25T01:34:37.922Z,8.40
2018-08-25T01:37:42.390Z,6.97
2018-08-25T01:40:47.054Z,8.13
2018-08-25T01:43:58.116Z,7.90
2018-08-25T01:47:02.607Z,7.10
2018-08-25T01:50:07.017Z,6.93
2018-08-25T01:53:12.414Z,6.73
2018-08-25T01:56:16.787Z,6.63
2018-08-25T01:59:21.499Z,5.77
2018-08-25T02:02:25.881Z,7.90
2018-08-25T02:05:31.030Z,7.37
2018-08-25T02:08:35.409Z,7.53
2018-08-25T02:11:39.960Z,6.67
2018-08-25T02:14:44.348Z,7.00
2018-08-25T02:17:48.773Z,7.30
2018-08-25T02:20:53.117Z,7.33
2018-08-25T02:23:57.519Z,7.57
2018-08-25T02:27:01.897Z,7.30
2018-08-25T02:30:06.329Z,7.10
2018-08-25T02:33:10.742Z,6.93
2018-08-25T02:36:15.226Z,7.00
2018-08-25T02:39:19.657Z,7.50
2018-08-25T02:42:24.026Z,7.10
2018-08-25T02:45:28.415Z,7.17
2018-08-25T02:48:32.877Z,6.45
2018-08-25T02:51:37.272Z,7.97
2018-08-25T02:54:41.659Z,6.60
2018-08-25T02:57:46.027Z,6.03
2018-08-25T03:00:50.387Z,6.67
2018-08-25T03:03:54.781Z,6.80
2018-08-25T03:06:59.182Z,6.20
2018-08-25T03:10:03.661Z,6.53
2018-08-25T03:13:08.476Z,5.93
2018-08-25T03:16:13.328Z,5.93
2018-08-25T03:19:17.788Z,5.83
2018-08-25T03:22:22.418Z,5.57
2018-08-25T03:25:26.806Z,4.53
2018-08-25T03:28:31.583Z,5.10
2018-08-25T03:31:35.925Z,4.57
2018-08-25T03:34:40.308Z,5.03
2018-08-25T03:37:44.918Z,4.30
2018-08-25T03:40:49.409Z,5.03
2018-08-25T03:43:53.889Z,4.85
2018-08-25T03:46:58.298Z,4.83
2018-08-25T03:50:02.799Z,4.40
2018-08-25T03:53:07.350Z,4.70
2018-08-25T03:56:11.808Z,4.37
2018-08-25T03:59:16.437Z,5.37
2018-08-25T04:02:20.771Z,4.77
2018-08-25T04:05:25.130Z,4.83
2018-08-25T04:08:29.767Z,4.23
2018-08-25T04:11:34.288Z,5.13
2018-08-25T04:14:38.859Z,4.37
2018-08-25T04:17:43.345Z,4.80
2018-08-25T04:20:47.728Z,5.23
2018-08-25T04:23:52.215Z,4.77
2018-08-25T04:26:56.838Z,4.57
2018-08-25T04:30:01.246Z,4.90
2018-08-25T04:33:05.765Z,3.93
2018-08-25T04:36:10.169Z,4.20
2018-08-25T04:39:14.553Z,4.40
2018-08-25T04:42:19.007Z,4.00
2018-08-25T04:45:23.403Z,4.80
2018-08-25T04:48:27.855Z,4.10
2018-08-25T04:51:32.570Z,4.50
2018-08-25T04:54:37.017Z,4.33
2018-08-25T04:57:41.429Z,4.47
2018-08-25T05:00:45.874Z,4.90
2018-08-25T05:03:50.300Z,5.27
2018-08-25T05:06:54.663Z,4.83
2018-08-25T05:09:59.141Z,4.80
2018-08-25T05:13:03.485Z,4.30
2018-08-25T05:16:10.070Z,4.30
2018-08-25T05:19:15.019Z,3.72
2018-08-25T05:22:19.419Z,3.97
2018-08-25T05:25:23.983Z,4.53
2018-08-25T05:28:28.446Z,4.23
2018-08-25T05:31:32.926Z,4.37
2018-08-25T05:34:37.486Z,4.17
2018-08-25T05:37:41.885Z,4.00
2018-08-25T05:40:46.262Z,4.80
2018-08-25T05:43:50.680Z,4.10
2018-08-25T05:46:55.158Z,4.23
2018-08-25T05:49:59.504Z,3.77
2018-08-25T05:53:04.193Z,4.70
2018-08-25T05:56:08.712Z,4.47
2018-08-25T05:59:13.435Z,3.50
2018-08-25T06:02:18.029Z,3.00
2018-08-25T06:05:22.661Z,3.47
2018-08-25T06:08:27.197Z,3.73
2018-08-25T06:11:31.791Z,3.60
2018-08-25T06:14:36.191Z,3.10
2018-08-25T06:17:40.628Z,3.57
2018-08-25T06:20:44.974Z,3.92
2018-08-25T06:23:49.430Z,4.30
2018-08-25T06:26:53.845Z,3.77
2018-08-25T06:29:58.317Z,3.40
2018-08-25T06:33:02.837Z,4.00
2018-08-25T06:36:07.717Z,3.20
2018-08-25T06:39:12.063Z,3.47
2018-08-25T06:42:16.458Z,4.90
2018-08-25T06:45:20.884Z,3.77
2018-08-25T06:48:25.242Z,3.83
2018-08-25T06:51:29.765Z,5.00
2018-08-25T06:54:34.501Z,3.63
2018-08-25T06:57:38.902Z,3.47
2018-08-25T07:00:43.510Z,3.60
2018-08-25T07:03:48.230Z,3.95
2018-08-25T07:06:52.661Z,3.80
2018-08-25T07:09:57.025Z,3.87
2018-08-25T07:13:02.061Z,3.37
2018-08-25T07:16:06.452Z,4.80
2018-08-25T07:19:10.933Z,3.75
2018-08-25T07:22:15.382Z,3.70
2018-08-25T07:25:19.755Z,3.53
2018-08-25T07:28:24.146Z,5.93
2018-08-25T07:31:28.521Z,3.67
2018-08-25T07:34:32.985Z,3.35
2018-08-25T07:37:37.425Z,3.10
2018-08-25T07:40:41.785Z,3.40
2018-08-25T07:43:46.344Z,3.40
2018-08-25T07:46:50.714Z,2.93
2018-08-25T07:49:56.312Z,3.10
2018-08-25T07:53:00.868Z,3.33
2018-08-25T07:56:05.371Z,2.83
2018-08-25T07:59:09.810Z,3.53
2018-08-25T08:02:14.198Z,3.50
2018-08-25T08:05:18.594Z,3.10
2018-08-25T08:08:23.069Z,3.05
2018-08-25T08:11:28.385Z,3.13
2018-08-25T08:14:32.738Z,2.90
2018-08-25T08:17:37.161Z,3.10
2018-08-25T08:20:41.504Z,3.23
2018-08-25T08:23:45.887Z,2.92
2018-08-25T08:26:50.546Z,2.73
2018-08-25T08:29:54.992Z,2.83
2018-08-25T08:32:59.392Z,2.93
2018-08-25T08:36:03.823Z,2.90
2018-08-25T08:39:10.059Z,3.17
2018-08-25T08:42:14.527Z,2.83
2018-08-25T08:45:18.950Z,2.83
2018-08-25T08:48:23.262Z,2.33
2018-08-25T08:51:27.754Z,3.30
2018-08-25T08:54:32.109Z,2.57
2018-08-25T08:57:36.754Z,2.57
2018-08-25T09:00:41.322Z,2.93
2018-08-25T09:03:45.820Z,2.37
2018-08-25T09:06:50.223Z,2.50
2018-08-25T09:09:54.666Z,2.57
2018-08-25T09:12:59.907Z,2.87
2018-08-25T09:16:04.612Z,2.23
2018-08-25T09:19:09.068Z,2.57
2018-08-25T09:22:13.589Z,2.17
2018-08-25T09:25:18.021Z,3.00
2018-08-25T09:28:22.407Z,3.43
2018-08-25T09:31:26.842Z,3.10
2018-08-25T09:34:32.174Z,2.73
2018-08-25T09:37:37.550Z,2.30
2018-08-25T09:40:41.941Z,2.50
2018-08-25T09:43:46.373Z,2.33
2018-08-25T09:46:51.082Z,2.77
2018-08-25T09:49:55.436Z,2.03
2018-08-25T09:52:59.975Z,2.30
2018-08-25T09:56:04.476Z,2.27
2018-08-25T09:59:08.840Z,2.40
2018-08-25T10:02:13.250Z,2.20
2018-08-25T10:05:17.733Z,2.57
2018-08-25T10:08:22.115Z,2.00
2018-08-25T10:11:26.495Z,2.47
2018-08-25T10:14:30.946Z,2.07
2018-08-25T10:17:35.578Z,2.20
2018-08-25T10:20:39.948Z,2.00
2018-08-25T10:23:44.381Z,2.37
2018-08-25T10:26:48.806Z,1.67
2018-08-25T10:29:53.193Z,1.20
2018-08-25T10:32:57.799Z,1.70
2018-08-25T10:36:02.171Z,1.60
2018-08-25T10:39:10.500Z,1.60
2018-08-25T10:42:14.932Z,1.73
2018-08-25T10:45:19.362Z,1.33
2018-08-25T10:48:23.784Z,1.40
2018-08-25T10:51:29.204Z,1.30
2018-08-25T10:54:34.099Z,1.73
2018-08-25T10:57:38.597Z,1.47
2018-08-25T11:00:43.219Z,1.60
2018-08-25T11:03:47.495Z,1.27
2018-08-25T11:06:51.918Z,1.57
2018-08-25T11:09:56.442Z,1.77
2018-08-25T11:13:01.640Z,1.60
2018-08-25T11:16:06.082Z,1.47
2018-08-25T11:19:10.481Z,1.43
2018-08-25T11:22:14.943Z,1.83
2018-08-25T11:25:19.428Z,1.23
2018-08-25T11:28:23.869Z,1.47
2018-08-25T11:31:28.282Z,1.70
2018-08-25T11:34:32.901Z,1.20
2018-08-25T11:37:37.341Z,1.43
2018-08-25T11:40:42.170Z,1.60
2018-08-25T11:43:47.692Z,1.80
2018-08-25T11:46:52.063Z,1.27
2018-08-25T11:49:56.549Z,1.30
2018-08-25T11:53:00.969Z,1.33
2018-08-25T11:56:05.426Z,1.30
2018-08-25T11:59:09.832Z,1.40
2018-08-25T12:02:14.918Z,1.20
2018-08-25T12:05:19.265Z,1.40
2018-08-25T12:08:23.621Z,1.50
2018-08-25T12:11:28.011Z,1.53
2018-08-25T12:14:32.516Z,1.80
2018-08-25T12:17:37.316Z,1.47
2018-08-25T12:20:41.724Z,1.37
2018-08-25T12:23:46.153Z,1.87
2018-08-25T12:26:52.306Z,1.50
2018-08-25T12:30:03.482Z,1.87
2018-08-25T12:33:07.856Z,1.53
2018-08-25T12:36:12.357Z,1.60
2018-08-25T12:39:16.760Z,1.60
2018-08-25T12:42:21.525Z,1.90
2018-08-25T12:45:25.909Z,2.10
2018-08-25T12:48:30.314Z,1.53
2018-08-25T12:51:34.738Z,1.90
2018-08-25T12:54:39.145Z,1.73
2018-08-25T12:57:43.490Z,1.90
2018-08-25T13:00:47.889Z,1.70
2018-08-25T13:03:52.252Z,2.67
2018-08-25T13:06:56.646Z,2.33
2018-08-25T13:10:01.177Z,2.42
2018-08-25T13:13:05.896Z,2.50
2018-08-25T13:16:10.458Z,1.93
2018-08-25T13:19:14.841Z,1.60
2018-08-25T13:22:19.259Z,2.27
2018-08-25T13:25:23.761Z,2.83
2018-08-25T13:28:28.322Z,2.30
2018-08-25T13:31:32.763Z,3.07
2018-08-25T13:34:37.159Z,3.33
2018-08-25T13:37:41.721Z,2.57
2018-08-25T13:40:46.232Z,3.03
2018-08-25T13:43:50.810Z,2.90
2018-08-25T13:46:55.179Z,2.90
2018-08-25T13:49:59.868Z,2.47
2018-08-25T13:53:04.405Z,3.07
2018-08-25T13:56:08.861Z,2.07
2018-08-25T13:59:13.470Z,2.70
2018-08-25T14:02:18.074Z,2.67
2018-08-25T14:05:22.589Z,2.07
2018-08-25T14:08:27.066Z,2.97
2018-08-25T14:11:31.387Z,2.93
2018-08-25T14:14:35.794Z,2.00
2018-08-25T14:17:40.281Z,2.57
2018-08-25T14:20:44.923Z,3.33
2018-08-25T14:23:49.461Z,2.47
2018-08-25T14:26:54.093Z,2.37
2018-08-25T14:29:58.641Z,2.30
2018-08-25T14:33:03.376Z,2.93
2018-08-25T14:36:08.094Z,2.70
2018-08-25T14:39:13.174Z,2.90
2018-08-25T14:42:17.807Z,2.57
2018-08-25T14:45:22.461Z,2.80
2018-08-25T14:48:27.217Z,2.75
2018-08-25T14:51:32.138Z,2.50
2018-08-25T14:54:37.805Z,2.57
2018-08-25T14:57:42.437Z,2.43
2018-08-25T15:00:46.975Z,2.17
2018-08-25T15:03:51.590Z,1.77
2018-08-25T15:06:56.068Z,1.70
2018-08-25T15:10:00.669Z,1.60
2018-08-25T15:13:05.121Z,1.70
2018-08-25T15:16:09.730Z,1.50
2018-08-25T15:19:14.385Z,1.30
2018-08-25T15:22:20.048Z,1.30
2018-08-25T15:25:24.809Z,1.70
2018-08-25T15:28:29.367Z,1.60
2018-08-25T15:31:33.833Z,1.80
2018-08-25T15:34:38.508Z,1.40
2018-08-25T15:37:43.217Z,1.37
2018-08-25T15:40:47.799Z,1.90
2018-08-25T15:43:52.245Z,2.30
2018-08-25T15:46:56.721Z,2.30
2018-08-25T15:50:01.408Z,2.03
2018-08-25T15:53:06.171Z,1.70
2018-08-25T15:56:10.757Z,1.67
2018-08-25T15:59:15.439Z,1.53
2018-08-25T16:02:20.082Z,1.90
2018-08-25T16:05:25.491Z,1.77
2018-08-25T16:08:30.065Z,2.03
2018-08-25T16:11:34.768Z,2.03
2018-08-25T16:14:39.284Z,1.93
2018-08-25T16:17:43.638Z,1.30
2018-08-25T16:20:48.320Z,2.08
2018-08-25T16:23:52.753Z,1.80
2018-08-25T16:26:57.228Z,2.43
2018-08-25T16:30:01.670Z,1.93
2018-08-25T16:33:06.031Z,1.33
2018-08-25T16:36:10.506Z,1.53
2018-08-25T16:39:15.030Z,1.30
2018-08-25T16:42:19.513Z,1.57
2018-08-25T16:45:23.882Z,1.60
2018-08-25T16:48:28.513Z,1.93
2018-08-25T16:51:32.926Z,1.80
2018-08-25T16:54:37.394Z,1.93
2018-08-25T16:57:41.864Z,2.37
2018-08-25T17:00:46.278Z,1.63
2018-08-25T17:03:50.849Z,1.93
2018-08-25T17:06:55.280Z,1.63
2018-08-25T17:09:59.721Z,2.00
2018-08-25T17:13:04.277Z,1.73
2018-08-25T17:16:08.741Z,1.70
2018-08-25T17:19:13.316Z,2.73
2018-08-25T17:22:19.686Z,2.30
2018-08-25T17:25:24.221Z,2.67
2018-08-25T17:28:29.184Z,2.13
2018-08-25T17:31:33.763Z,1.97
2018-08-25T17:34:38.324Z,1.53
2018-08-25T17:37:43.192Z,1.70
2018-08-25T17:40:47.651Z,2.03
2018-08-25T17:43:52.207Z,2.17
2018-08-25T17:46:56.590Z,2.23
2018-08-25T17:50:00.973Z,1.60
2018-08-25T17:53:06.154Z,1.50
2018-08-25T17:56:10.657Z,1.77
2018-08-25T17:59:15.135Z,1.70
2018-08-25T18:02:19.606Z,1.50
2018-08-25T18:05:23.984Z,1.70
2018-08-25T18:08:29.463Z,1.67
2018-08-25T18:11:33.875Z,1.80
2018-08-25T18:14:39.266Z,1.73
2018-08-25T18:17:43.628Z,1.47
2018-08-25T18:20:48.128Z,1.90
2018-08-25T18:23:52.829Z,1.83
2018-08-25T18:26:57.398Z,1.63
2018-08-25T18:30:01.766Z,2.10
2018-08-25T18:33:06.325Z,1.60
2018-08-25T18:36:10.675Z,1.87
2018-08-25T18:39:15.244Z,2.10
2018-08-25T18:42:19.730Z,2.20
2018-08-25T18:45:24.593Z,1.90
2018-08-25T18:48:29.015Z,2.35
2018-08-25T18:51:33.342Z,2.20
2018-08-25T18:54:37.829Z,2.17
2018-08-25T18:57:42.461Z,1.80
2018-08-25T19:00:46.897Z,1.83
2018-08-25T19:03:51.480Z,1.67
2018-08-25T19:06:55.959Z,2.07
2018-08-25T19:10:00.499Z,1.73
2018-08-25T19:13:05.165Z,2.03
2018-08-25T19:16:09.698Z,1.80
2018-08-25T19:19:14.177Z,1.63
2018-08-25T19:22:18.746Z,2.00
2018-08-25T19:25:23.332Z,1.53
2018-08-25T19:28:27.735Z,1.70
2018-08-25T19:31:32.161Z,1.80
2018-08-25T19:34:36.609Z,1.60
2018-08-25T19:37:41.228Z,1.57
2018-08-25T19:40:45.625Z,1.63
2018-08-25T19:43:50.037Z,1.40
2018-08-25T19:46:54.407Z,1.10
2018-08-25T19:49:58.763Z,1.47
2018-08-25T19:53:03.841Z,1.20
2018-08-25T19:56:08.288Z,1.27
2018-08-25T19:59:12.649Z,1.47
2018-08-25T20:02:17.317Z,1.40
2018-08-25T20:05:21.742Z,1.40
2018-08-25T20:08:26.210Z,1.20
2018-08-25T20:11:30.594Z,1.30
2018-08-25T20:14:35.052Z,1.07
2018-08-25T20:17:39.428Z,0.90
2018-08-25T20:20:43.828Z,1.27
2018-08-25T20:23:48.218Z,1.10
2018-08-25T20:26:52.658Z,0.87
2018-08-25T20:29:57.240Z,0.95
2018-08-25T20:33:01.646Z,0.93
2018-08-25T20:36:06.330Z,0.93
2018-08-25T20:39:11.118Z,1.87
2018-08-25T20:42:15.763Z,0.90
2018-08-25T20:45:20.385Z,1.00
2018-08-25T20:48:24.925Z,0.90
2018-08-25T20:51:29.461Z,1.10
2018-08-25T20:54:33.825Z,1.00
2018-08-25T20:57:38.167Z,1.10
2018-08-25T21:00:42.712Z,0.90
2018-08-25T21:03:47.073Z,1.30
2018-08-25T21:06:51.646Z,0.90
2018-08-25T21:09:56.070Z,1.30
2018-08-25T21:13:00.417Z,1.73
2018-08-25T21:16:04.813Z,2.30
2018-08-25T21:19:09.224Z,2.00
2018-08-25T21:22:13.971Z,1.10
2018-08-25T21:25:19.154Z,1.10
2018-08-25T21:28:23.736Z,0.90
2018-08-25T21:31:28.674Z,0.87
2018-08-25T21:34:35.029Z,0.90
2018-08-25T21:40:55.483Z,1.00
2018-08-25T21:44:00.203Z,0.87
2018-08-25T21:47:04.614Z,1.10
2018-08-25T21:50:09.068Z,0.80
2018-08-25T21:53:13.442Z,0.80
2018-08-25T21:56:19.099Z,1.00
2018-08-25T21:59:23.446Z,0.70
2018-08-25T22:02:27.814Z,1.00
2018-08-25T22:05:32.270Z,1.17
2018-08-25T22:08:37.032Z,0.77
2018-08-25T22:11:41.494Z,0.90
2018-08-25T22:14:46.206Z,1.07
2018-08-25T22:17:50.714Z,1.23
2018-08-25T22:20:55.064Z,0.63
2018-08-25T22:23:59.767Z,0.90
2018-08-25T22:27:04.321Z,1.40
2018-08-25T22:30:08.732Z,0.70
2018-08-25T22:33:13.303Z,0.87
2018-08-25T22:36:17.927Z,0.60
2018-08-25T22:39:22.291Z,0.50
2018-08-25T22:42:26.725Z,0.70
2018-08-25T22:45:31.206Z,0.60
2018-08-25T22:48:35.637Z,0.60
2018-08-25T22:51:40.380Z,0.60
2018-08-25T22:54:44.849Z,0.80
2018-08-25T22:57:49.581Z,0.70
2018-08-25T23:00:55.058Z,0.70
2018-08-25T23:03:59.441Z,0.80
2018-08-25T23:07:04.068Z,0.70
2018-08-25T23:10:08.942Z,0.60
2018-08-25T23:13:13.591Z,0.80
2018-08-25T23:16:18.638Z,0.80
2018-08-25T23:19:26.006Z,0.80
2018-08-25T23:22:30.702Z,0.80
2018-08-25T23:25:35.245Z,0.63
2018-08-25T23:28:39.607Z,1.10
2018-08-25T23:31:43.996Z,1.07
2018-08-25T23:34:48.841Z,0.90
2018-08-25T23:37:53.229Z,1.20
2018-08-25T23:40:57.877Z,1.10
2018-08-25T23:44:02.262Z,1.32
2018-08-25T23:47:06.775Z,1.43
2018-08-25T23:50:11.533Z,0.93
2018-08-25T23:53:15.868Z,1.10
2018-08-25T23:56:20.552Z,1.00
2018-08-25T23:59:24.912Z,1.10
